sensor_id;sensor_type;location;lat;lon;timestamp;temperature;humidity
24730;DHT22;12832;52.392;13.066;2022-07-03T00:00:22;29.60;45.30
24730;DHT22;12832;52.392;13.066;2022-07-03T00:02:49;29.60;45.30
24730;DHT22;12832;52.392;13.066;2022-07-03T00:05:15;29.60;45.30
24730;DHT22;12832;52.392;13.066;2022-07-03T00:07:41;29.70;45.30
24730;DHT22;12832;52.392;13.066;2022-07-03T00:10:08;29.60;45.30
24730;DHT22;12832;52.392;13.066;2022-07-03T00:12:38;29.60;45.20
24730;DHT22;12832;52.392;13.066;2022-07-03T00:15:30;29.60;45.20
24730;DHT22;12832;52.392;13.066;2022-07-03T00:17:57;29.60;45.20
24730;DHT22;12832;52.392;13.066;2022-07-03T00:20:29;29.60;45.20
24730;DHT22;12832;52.392;13.066;2022-07-03T00:22:58;29.60;45.30
24730;DHT22;12832;52.392;13.066;2022-07-03T00:25:27;29.60;45.20
24730;DHT22;12832;52.392;13.066;2022-07-03T00:27:54;29.60;45.20
24730;DHT22;12832;52.392;13.066;2022-07-03T00:30:21;29.60;45.30
24730;DHT22;12832;52.392;13.066;2022-07-03T00:32:48;29.60;45.20
24730;DHT22;12832;52.392;13.066;2022-07-03T00:35:21;29.60;45.20
24730;DHT22;12832;52.392;13.066;2022-07-03T00:37:48;29.60;45.20
24730;DHT22;12832;52.392;13.066;2022-07-03T00:40:14;29.60;45.20
24730;DHT22;12832;52.392;13.066;2022-07-03T00:42:41;29.60;45.20
24730;DHT22;12832;52.392;13.066;2022-07-03T00:45:13;29.60;45.20
24730;DHT22;12832;52.392;13.066;2022-07-03T00:47:47;29.60;45.20
24730;DHT22;12832;52.392;13.066;2022-07-03T00:50:14;29.60;45.20
24730;DHT22;12832;52.392;13.066;2022-07-03T00:52:46;29.60;45.20
24730;DHT22;12832;52.392;13.066;2022-07-03T00:55:17;29.60;45.20
24730;DHT22;12832;52.392;13.066;2022-07-03T00:57:51;29.70;45.20
24730;DHT22;12832;52.392;13.066;2022-07-03T01:00:18;29.60;45.20
24730;DHT22;12832;52.392;13.066;2022-07-03T01:05:12;29.60;45.20
24730;DHT22;12832;52.392;13.066;2022-07-03T01:10:54;29.60;45.10
24730;DHT22;12832;52.392;13.066;2022-07-03T01:17:03;29.60;45.10
24730;DHT22;12832;52.392;13.066;2022-07-03T01:19:46;29.60;45.10
24730;DHT22;12832;52.392;13.066;2022-07-03T01:28:14;29.60;45.20
24730;DHT22;12832;52.392;13.066;2022-07-03T01:33:16;29.60;45.10
24730;DHT22;12832;52.392;13.066;2022-07-03T01:36:08;29.60;45.10
24730;DHT22;12832;52.392;13.066;2022-07-03T01:38:38;29.60;45.10
24730;DHT22;12832;52.392;13.066;2022-07-03T01:41:11;29.60;45.10
24730;DHT22;12832;52.392;13.066;2022-07-03T01:43:56;29.60;45.10
24730;DHT22;12832;52.392;13.066;2022-07-03T01:46:32;29.60;45.20
24730;DHT22;12832;52.392;13.066;2022-07-03T01:49:00;29.60;45.10
24730;DHT22;12832;52.392;13.066;2022-07-03T01:51:26;29.60;45.10
24730;DHT22;12832;52.392;13.066;2022-07-03T01:53:53;29.60;45.20
24730;DHT22;12832;52.392;13.066;2022-07-03T01:56:24;29.60;45.10
24730;DHT22;12832;52.392;13.066;2022-07-03T01:58:52;29.60;45.10
24730;DHT22;12832;52.392;13.066;2022-07-03T02:01:22;29.60;45.20
24730;DHT22;12832;52.392;13.066;2022-07-03T02:04:28;29.60;45.10
24730;DHT22;12832;52.392;13.066;2022-07-03T02:07:01;29.60;45.20
24730;DHT22;12832;52.392;13.066;2022-07-03T02:09:50;29.60;45.10
24730;DHT22;12832;52.392;13.066;2022-07-03T02:12:27;29.60;45.10
24730;DHT22;12832;52.392;13.066;2022-07-03T02:15:09;29.60;45.10
24730;DHT22;12832;52.392;13.066;2022-07-03T02:17:56;29.60;45.10
24730;DHT22;12832;52.392;13.066;2022-07-03T02:20:28;29.60;45.10
24730;DHT22;12832;52.392;13.066;2022-07-03T02:23:03;29.60;45.10
24730;DHT22;12832;52.392;13.066;2022-07-03T02:25:42;29.60;45.10
24730;DHT22;12832;52.392;13.066;2022-07-03T02:31:01;29.60;45.10
24730;DHT22;12832;52.392;13.066;2022-07-03T02:33:30;29.60;45.10
24730;DHT22;12832;52.392;13.066;2022-07-03T02:35:57;29.60;45.10
24730;DHT22;12832;52.392;13.066;2022-07-03T02:38:25;29.60;45.10
24730;DHT22;12832;52.392;13.066;2022-07-03T02:44:01;29.60;45.10
24730;DHT22;12832;52.392;13.066;2022-07-03T02:52:24;29.60;45.00
24730;DHT22;12832;52.392;13.066;2022-07-03T02:54:53;29.60;45.00
24730;DHT22;12832;52.392;13.066;2022-07-03T02:57:24;29.60;45.10
24730;DHT22;12832;52.392;13.066;2022-07-03T03:00:04;29.60;45.10
24730;DHT22;12832;52.392;13.066;2022-07-03T03:02:52;29.60;45.00
24730;DHT22;12832;52.392;13.066;2022-07-03T03:05:40;29.60;45.00
24730;DHT22;12832;52.392;13.066;2022-07-03T03:08:42;29.60;45.00
24730;DHT22;12832;52.392;13.066;2022-07-03T03:11:23;29.60;45.10
24730;DHT22;12832;52.392;13.066;2022-07-03T03:13:53;29.60;45.10
24730;DHT22;12832;52.392;13.066;2022-07-03T03:16:21;29.60;45.00
24730;DHT22;12832;52.392;13.066;2022-07-03T03:18:49;29.60;45.00
24730;DHT22;12832;52.392;13.066;2022-07-03T03:21:17;29.60;45.00
24730;DHT22;12832;52.392;13.066;2022-07-03T03:23:52;29.60;45.00
24730;DHT22;12832;52.392;13.066;2022-07-03T03:26:26;29.60;45.00
24730;DHT22;12832;52.392;13.066;2022-07-03T03:28:59;29.60;45.00
24730;DHT22;12832;52.392;13.066;2022-07-03T03:31:26;29.60;45.00
24730;DHT22;12832;52.392;13.066;2022-07-03T03:33:53;29.60;45.00
24730;DHT22;12832;52.392;13.066;2022-07-03T03:36:21;29.60;45.00
24730;DHT22;12832;52.392;13.066;2022-07-03T03:38:48;29.60;45.00
24730;DHT22;12832;52.392;13.066;2022-07-03T03:41:16;29.60;45.00
24730;DHT22;12832;52.392;13.066;2022-07-03T03:43:45;29.60;45.00
24730;DHT22;12832;52.392;13.066;2022-07-03T03:46:11;29.60;45.00
24730;DHT22;12832;52.392;13.066;2022-07-03T03:48:38;29.60;45.00
24730;DHT22;12832;52.392;13.066;2022-07-03T03:51:06;29.60;45.00
24730;DHT22;12832;52.392;13.066;2022-07-03T03:53:33;29.60;45.00
24730;DHT22;12832;52.392;13.066;2022-07-03T03:56:04;29.60;45.00
24730;DHT22;12832;52.392;13.066;2022-07-03T03:58:33;29.60;45.00
24730;DHT22;12832;52.392;13.066;2022-07-03T04:01:04;29.60;45.00
24730;DHT22;12832;52.392;13.066;2022-07-03T04:03:31;29.60;45.00
24730;DHT22;12832;52.392;13.066;2022-07-03T04:05:57;29.60;45.00
24730;DHT22;12832;52.392;13.066;2022-07-03T04:08:27;29.60;45.00
24730;DHT22;12832;52.392;13.066;2022-07-03T04:10:57;29.60;45.00
24730;DHT22;12832;52.392;13.066;2022-07-03T04:13:25;29.60;45.00
24730;DHT22;12832;52.392;13.066;2022-07-03T04:15:53;29.60;45.00
24730;DHT22;12832;52.392;13.066;2022-07-03T04:18:20;29.60;45.00
24730;DHT22;12832;52.392;13.066;2022-07-03T04:20:46;29.60;45.00
24730;DHT22;12832;52.392;13.066;2022-07-03T04:23:13;29.60;45.00
24730;DHT22;12832;52.392;13.066;2022-07-03T04:25:39;29.60;45.00
24730;DHT22;12832;52.392;13.066;2022-07-03T04:28:06;29.60;45.00
24730;DHT22;12832;52.392;13.066;2022-07-03T04:30:45;29.60;45.00
24730;DHT22;12832;52.392;13.066;2022-07-03T04:33:13;29.60;45.00
24730;DHT22;12832;52.392;13.066;2022-07-03T04:35:39;29.60;45.00
24730;DHT22;12832;52.392;13.066;2022-07-03T04:38:06;29.50;44.90
24730;DHT22;12832;52.392;13.066;2022-07-03T04:40:32;29.60;45.00
24730;DHT22;12832;52.392;13.066;2022-07-03T04:42:59;29.60;44.90
24730;DHT22;12832;52.392;13.066;2022-07-03T04:45:25;29.60;45.00
24730;DHT22;12832;52.392;13.066;2022-07-03T04:47:51;29.60;44.90
24730;DHT22;12832;52.392;13.066;2022-07-03T04:50:18;29.60;44.90
24730;DHT22;12832;52.392;13.066;2022-07-03T04:52:44;29.60;44.90
24730;DHT22;12832;52.392;13.066;2022-07-03T04:55:11;29.60;44.90
24730;DHT22;12832;52.392;13.066;2022-07-03T04:57:38;29.60;44.90
24730;DHT22;12832;52.392;13.066;2022-07-03T05:00:08;29.60;44.90
24730;DHT22;12832;52.392;13.066;2022-07-03T05:02:35;29.60;45.00
24730;DHT22;12832;52.392;13.066;2022-07-03T05:05:04;29.60;45.00
24730;DHT22;12832;52.392;13.066;2022-07-03T05:07:30;29.60;44.90
24730;DHT22;12832;52.392;13.066;2022-07-03T05:09:56;29.60;45.00
24730;DHT22;12832;52.392;13.066;2022-07-03T05:12:23;29.60;44.90
24730;DHT22;12832;52.392;13.066;2022-07-03T05:14:49;29.60;44.90
24730;DHT22;12832;52.392;13.066;2022-07-03T05:17:17;29.60;44.90
24730;DHT22;12832;52.392;13.066;2022-07-03T05:19:44;29.60;44.90
24730;DHT22;12832;52.392;13.066;2022-07-03T05:22:11;29.60;44.90
24730;DHT22;12832;52.392;13.066;2022-07-03T05:24:38;29.60;44.90
24730;DHT22;12832;52.392;13.066;2022-07-03T05:27:08;29.60;44.90
24730;DHT22;12832;52.392;13.066;2022-07-03T05:29:38;29.60;44.90
24730;DHT22;12832;52.392;13.066;2022-07-03T05:32:07;29.60;44.90
24730;DHT22;12832;52.392;13.066;2022-07-03T05:34:33;29.60;44.90
24730;DHT22;12832;52.392;13.066;2022-07-03T05:37:00;29.60;44.90
24730;DHT22;12832;52.392;13.066;2022-07-03T05:39:26;29.60;44.90
24730;DHT22;12832;52.392;13.066;2022-07-03T05:42:02;29.60;44.90
24730;DHT22;12832;52.392;13.066;2022-07-03T05:44:32;29.60;44.90
24730;DHT22;12832;52.392;13.066;2022-07-03T05:46:58;29.60;44.90
24730;DHT22;12832;52.392;13.066;2022-07-03T05:49:24;29.60;44.90
24730;DHT22;12832;52.392;13.066;2022-07-03T05:51:51;29.60;44.90
24730;DHT22;12832;52.392;13.066;2022-07-03T05:54:17;29.60;44.90
24730;DHT22;12832;52.392;13.066;2022-07-03T05:56:43;29.60;44.90
24730;DHT22;12832;52.392;13.066;2022-07-03T05:59:09;29.60;44.90
24730;DHT22;12832;52.392;13.066;2022-07-03T06:01:39;29.60;44.90
24730;DHT22;12832;52.392;13.066;2022-07-03T06:04:31;29.60;44.90
24730;DHT22;12832;52.392;13.066;2022-07-03T06:06:57;29.60;44.90
24730;DHT22;12832;52.392;13.066;2022-07-03T06:09:26;29.60;44.90
24730;DHT22;12832;52.392;13.066;2022-07-03T06:11:56;29.60;44.90
24730;DHT22;12832;52.392;13.066;2022-07-03T06:14:26;29.60;44.90
24730;DHT22;12832;52.392;13.066;2022-07-03T06:16:54;29.60;44.90
24730;DHT22;12832;52.392;13.066;2022-07-03T06:19:24;29.60;44.90
24730;DHT22;12832;52.392;13.066;2022-07-03T06:21:50;29.60;44.90
24730;DHT22;12832;52.392;13.066;2022-07-03T06:24:17;29.60;44.90
24730;DHT22;12832;52.392;13.066;2022-07-03T06:26:44;29.60;44.90
24730;DHT22;12832;52.392;13.066;2022-07-03T06:29:10;29.60;44.90
24730;DHT22;12832;52.392;13.066;2022-07-03T06:31:40;29.60;44.90
24730;DHT22;12832;52.392;13.066;2022-07-03T06:34:08;29.60;44.90
24730;DHT22;12832;52.392;13.066;2022-07-03T06:36:38;29.60;44.90
24730;DHT22;12832;52.392;13.066;2022-07-03T06:39:06;29.60;44.90
24730;DHT22;12832;52.392;13.066;2022-07-03T06:41:33;29.60;44.90
24730;DHT22;12832;52.392;13.066;2022-07-03T06:44:00;29.60;44.80
24730;DHT22;12832;52.392;13.066;2022-07-03T06:46:26;29.60;44.90
24730;DHT22;12832;52.392;13.066;2022-07-03T06:48:53;29.60;44.80
24730;DHT22;12832;52.392;13.066;2022-07-03T06:51:20;29.60;44.80
24730;DHT22;12832;52.392;13.066;2022-07-03T06:53:46;29.60;44.90
24730;DHT22;12832;52.392;13.066;2022-07-03T06:56:13;29.60;44.90
24730;DHT22;12832;52.392;13.066;2022-07-03T06:58:39;29.60;44.80
24730;DHT22;12832;52.392;13.066;2022-07-03T07:01:08;29.60;44.80
24730;DHT22;12832;52.392;13.066;2022-07-03T07:03:35;29.60;44.80
24730;DHT22;12832;52.392;13.066;2022-07-03T07:06:01;29.60;44.80
24730;DHT22;12832;52.392;13.066;2022-07-03T07:08:29;29.60;44.80
24730;DHT22;12832;52.392;13.066;2022-07-03T07:10:55;29.60;44.80
24730;DHT22;12832;52.392;13.066;2022-07-03T07:13:22;29.60;45.40
24730;DHT22;12832;52.392;13.066;2022-07-03T07:15:49;29.60;44.70
24730;DHT22;12832;52.392;13.066;2022-07-03T07:18:17;29.60;44.70
24730;DHT22;12832;52.392;13.066;2022-07-03T07:20:43;29.60;44.80
24730;DHT22;12832;52.392;13.066;2022-07-03T07:23:10;29.60;44.70
24730;DHT22;12832;52.392;13.066;2022-07-03T07:25:36;29.60;44.70
24730;DHT22;12832;52.392;13.066;2022-07-03T07:28:11;29.60;44.70
24730;DHT22;12832;52.392;13.066;2022-07-03T07:30:40;29.60;44.70
24730;DHT22;12832;52.392;13.066;2022-07-03T07:33:09;29.60;44.70
24730;DHT22;12832;52.392;13.066;2022-07-03T07:35:35;29.60;44.80
24730;DHT22;12832;52.392;13.066;2022-07-03T07:38:01;29.60;44.70
24730;DHT22;12832;52.392;13.066;2022-07-03T07:40:34;29.60;44.70
24730;DHT22;12832;52.392;13.066;2022-07-03T07:43:03;29.70;44.80
24730;DHT22;12832;52.392;13.066;2022-07-03T07:45:30;29.60;44.80
24730;DHT22;12832;52.392;13.066;2022-07-03T07:47:57;29.60;44.70
24730;DHT22;12832;52.392;13.066;2022-07-03T07:50:23;29.60;44.70
24730;DHT22;12832;52.392;13.066;2022-07-03T07:52:53;29.60;44.70
24730;DHT22;12832;52.392;13.066;2022-07-03T07:55:19;29.60;44.70
24730;DHT22;12832;52.392;13.066;2022-07-03T07:57:47;29.60;44.70
24730;DHT22;12832;52.392;13.066;2022-07-03T08:00:16;29.60;44.70
24730;DHT22;12832;52.392;13.066;2022-07-03T08:02:45;29.60;44.70
24730;DHT22;12832;52.392;13.066;2022-07-03T08:05:30;29.60;44.70
24730;DHT22;12832;52.392;13.066;2022-07-03T08:08:13;29.60;44.60
24730;DHT22;12832;52.392;13.066;2022-07-03T08:10:47;29.60;44.70
24730;DHT22;12832;52.392;13.066;2022-07-03T08:13:15;29.60;44.70
24730;DHT22;12832;52.392;13.066;2022-07-03T08:15:42;29.60;44.60
24730;DHT22;12832;52.392;13.066;2022-07-03T08:18:10;29.60;44.60
24730;DHT22;12832;52.392;13.066;2022-07-03T08:20:37;29.60;44.60
24730;DHT22;12832;52.392;13.066;2022-07-03T08:23:04;29.70;44.70
24730;DHT22;12832;52.392;13.066;2022-07-03T08:25:33;29.70;44.70
24730;DHT22;12832;52.392;13.066;2022-07-03T08:28:00;29.60;44.60
24730;DHT22;12832;52.392;13.066;2022-07-03T08:30:26;29.60;44.70
24730;DHT22;12832;52.392;13.066;2022-07-03T08:32:54;29.60;44.60
24730;DHT22;12832;52.392;13.066;2022-07-03T08:35:23;29.60;44.60
24730;DHT22;12832;52.392;13.066;2022-07-03T08:37:49;29.60;44.60
24730;DHT22;12832;52.392;13.066;2022-07-03T08:40:20;29.60;44.60
24730;DHT22;12832;52.392;13.066;2022-07-03T08:42:57;29.60;44.50
24730;DHT22;12832;52.392;13.066;2022-07-03T08:45:26;29.60;44.50
24730;DHT22;12832;52.392;13.066;2022-07-03T08:47:59;29.60;44.60
24730;DHT22;12832;52.392;13.066;2022-07-03T08:50:28;29.60;44.50
24730;DHT22;12832;52.392;13.066;2022-07-03T08:52:57;29.60;44.50
24730;DHT22;12832;52.392;13.066;2022-07-03T08:55:26;29.60;44.50
24730;DHT22;12832;52.392;13.066;2022-07-03T08:57:56;29.60;44.50
24730;DHT22;12832;52.392;13.066;2022-07-03T09:00:26;29.60;44.50
24730;DHT22;12832;52.392;13.066;2022-07-03T09:02:54;29.60;44.50
24730;DHT22;12832;52.392;13.066;2022-07-03T09:05:20;29.60;44.50
24730;DHT22;12832;52.392;13.066;2022-07-03T09:07:52;29.60;44.50
24730;DHT22;12832;52.392;13.066;2022-07-03T09:10:18;29.60;44.50
24730;DHT22;12832;52.392;13.066;2022-07-03T09:12:47;29.60;44.50
24730;DHT22;12832;52.392;13.066;2022-07-03T09:15:13;29.60;44.50
24730;DHT22;12832;52.392;13.066;2022-07-03T09:17:40;29.60;44.50
24730;DHT22;12832;52.392;13.066;2022-07-03T09:20:38;29.60;44.50
24730;DHT22;12832;52.392;13.066;2022-07-03T09:23:27;29.60;44.50
24730;DHT22;12832;52.392;13.066;2022-07-03T09:26:06;29.60;44.50
24730;DHT22;12832;52.392;13.066;2022-07-03T09:28:46;29.60;44.50
24730;DHT22;12832;52.392;13.066;2022-07-03T09:31:16;29.60;44.50
24730;DHT22;12832;52.392;13.066;2022-07-03T09:34:04;29.60;44.50
24730;DHT22;12832;52.392;13.066;2022-07-03T09:36:45;29.60;44.50
24730;DHT22;12832;52.392;13.066;2022-07-03T09:39:28;29.60;44.50
24730;DHT22;12832;52.392;13.066;2022-07-03T09:42:08;29.60;44.50
24730;DHT22;12832;52.392;13.066;2022-07-03T09:44:43;29.60;44.50
24730;DHT22;12832;52.392;13.066;2022-07-03T09:47:39;29.60;44.50
24730;DHT22;12832;52.392;13.066;2022-07-03T09:50:10;29.60;44.50
24730;DHT22;12832;52.392;13.066;2022-07-03T09:52:47;29.60;44.50
24730;DHT22;12832;52.392;13.066;2022-07-03T09:55:14;29.60;44.50
24730;DHT22;12832;52.392;13.066;2022-07-03T10:00:29;29.60;44.50
24730;DHT22;12832;52.392;13.066;2022-07-03T10:03:00;29.60;44.50
24730;DHT22;12832;52.392;13.066;2022-07-03T10:10:32;29.60;44.50
24730;DHT22;12832;52.392;13.066;2022-07-03T10:13:04;29.60;44.50
24730;DHT22;12832;52.392;13.066;2022-07-03T10:15:35;29.60;44.40
24730;DHT22;12832;52.392;13.066;2022-07-03T10:18:07;29.60;44.40
24730;DHT22;12832;52.392;13.066;2022-07-03T10:23:10;29.60;44.50
24730;DHT22;12832;52.392;13.066;2022-07-03T10:25:42;29.60;44.50
24730;DHT22;12832;52.392;13.066;2022-07-03T10:28:11;29.60;44.50
24730;DHT22;12832;52.392;13.066;2022-07-03T10:30:42;29.60;44.40
24730;DHT22;12832;52.392;13.066;2022-07-03T10:33:09;29.60;44.40
24730;DHT22;12832;52.392;13.066;2022-07-03T10:35:51;29.60;44.40
24730;DHT22;12832;52.392;13.066;2022-07-03T10:38:37;29.60;44.40
24730;DHT22;12832;52.392;13.066;2022-07-03T10:41:40;29.60;44.40
24730;DHT22;12832;52.392;13.066;2022-07-03T10:44:27;29.60;44.40
24730;DHT22;12832;52.392;13.066;2022-07-03T10:47:49;29.60;44.40
24730;DHT22;12832;52.392;13.066;2022-07-03T10:50:24;29.60;44.40
24730;DHT22;12832;52.392;13.066;2022-07-03T10:53:24;29.60;44.50
24730;DHT22;12832;52.392;13.066;2022-07-03T10:56:03;29.60;44.40
24730;DHT22;12832;52.392;13.066;2022-07-03T10:58:32;29.60;44.50
24730;DHT22;12832;52.392;13.066;2022-07-03T11:01:00;29.60;44.40
24730;DHT22;12832;52.392;13.066;2022-07-03T11:03:57;29.60;44.40
24730;DHT22;12832;52.392;13.066;2022-07-03T11:09:10;29.60;44.40
24730;DHT22;12832;52.392;13.066;2022-07-03T11:12:02;29.60;44.40
24730;DHT22;12832;52.392;13.066;2022-07-03T11:14:31;29.60;44.40
24730;DHT22;12832;52.392;13.066;2022-07-03T11:17:21;29.60;44.40
24730;DHT22;12832;52.392;13.066;2022-07-03T11:19:52;29.60;44.40
24730;DHT22;12832;52.392;13.066;2022-07-03T11:22:57;29.60;44.40
24730;DHT22;12832;52.392;13.066;2022-07-03T11:25:25;29.60;44.40
24730;DHT22;12832;52.392;13.066;2022-07-03T11:27:52;29.60;44.30
24730;DHT22;12832;52.392;13.066;2022-07-03T11:30:19;29.60;45.00
24730;DHT22;12832;52.392;13.066;2022-07-03T11:32:54;29.60;44.40
24730;DHT22;12832;52.392;13.066;2022-07-03T11:35:49;29.60;44.30
24730;DHT22;12832;52.392;13.066;2022-07-03T11:38:27;29.60;44.30
24730;DHT22;12832;52.392;13.066;2022-07-03T11:40:56;29.60;44.30
24730;DHT22;12832;52.392;13.066;2022-07-03T11:43:22;29.60;44.30
24730;DHT22;12832;52.392;13.066;2022-07-03T11:45:50;29.60;44.30
24730;DHT22;12832;52.392;13.066;2022-07-03T11:48:19;29.60;44.30
24730;DHT22;12832;52.392;13.066;2022-07-03T11:50:47;29.60;44.30
24730;DHT22;12832;52.392;13.066;2022-07-03T11:53:19;29.60;44.30
24730;DHT22;12832;52.392;13.066;2022-07-03T11:55:54;29.60;44.30
24730;DHT22;12832;52.392;13.066;2022-07-03T11:59:00;29.60;44.30
24730;DHT22;12832;52.392;13.066;2022-07-03T12:01:32;29.60;44.30
24730;DHT22;12832;52.392;13.066;2022-07-03T12:04:27;29.60;44.30
24730;DHT22;12832;52.392;13.066;2022-07-03T12:06:59;29.60;44.30
24730;DHT22;12832;52.392;13.066;2022-07-03T12:09:37;29.60;44.30
24730;DHT22;12832;52.392;13.066;2022-07-03T12:12:36;29.60;44.30
24730;DHT22;12832;52.392;13.066;2022-07-03T12:15:08;29.60;44.30
24730;DHT22;12832;52.392;13.066;2022-07-03T12:17:34;29.60;44.30
24730;DHT22;12832;52.392;13.066;2022-07-03T12:20:08;29.60;44.30
24730;DHT22;12832;52.392;13.066;2022-07-03T12:22:39;29.60;44.30
24730;DHT22;12832;52.392;13.066;2022-07-03T12:25:07;29.60;44.30
24730;DHT22;12832;52.392;13.066;2022-07-03T12:27:35;29.60;44.30
24730;DHT22;12832;52.392;13.066;2022-07-03T12:30:06;29.60;44.30
24730;DHT22;12832;52.392;13.066;2022-07-03T12:32:36;29.60;44.30
24730;DHT22;12832;52.392;13.066;2022-07-03T12:35:06;29.60;44.30
24730;DHT22;12832;52.392;13.066;2022-07-03T12:37:42;29.60;44.30
24730;DHT22;12832;52.392;13.066;2022-07-03T12:40:15;29.60;44.30
24730;DHT22;12832;52.392;13.066;2022-07-03T12:42:52;29.70;44.30
24730;DHT22;12832;52.392;13.066;2022-07-03T12:45:27;29.60;44.30
24730;DHT22;12832;52.392;13.066;2022-07-03T12:48:05;29.60;44.30
24730;DHT22;12832;52.392;13.066;2022-07-03T12:50:45;29.60;44.30
24730;DHT22;12832;52.392;13.066;2022-07-03T12:53:30;29.60;44.30
24730;DHT22;12832;52.392;13.066;2022-07-03T12:56:05;29.60;44.30
24730;DHT22;12832;52.392;13.066;2022-07-03T12:58:36;29.60;44.30
24730;DHT22;12832;52.392;13.066;2022-07-03T13:01:34;29.60;44.30
24730;DHT22;12832;52.392;13.066;2022-07-03T13:04:08;29.60;44.30
24730;DHT22;12832;52.392;13.066;2022-07-03T13:06:35;29.60;44.30
24730;DHT22;12832;52.392;13.066;2022-07-03T13:09:26;29.60;44.30
24730;DHT22;12832;52.392;13.066;2022-07-03T13:11:54;29.60;44.30
24730;DHT22;12832;52.392;13.066;2022-07-03T13:14:21;29.60;44.30
24730;DHT22;12832;52.392;13.066;2022-07-03T13:16:50;29.60;44.30
24730;DHT22;12832;52.392;13.066;2022-07-03T13:19:19;29.60;44.20
24730;DHT22;12832;52.392;13.066;2022-07-03T13:21:46;29.60;44.30
24730;DHT22;12832;52.392;13.066;2022-07-03T13:24:14;29.60;44.30
24730;DHT22;12832;52.392;13.066;2022-07-03T13:26:42;29.60;44.30
24730;DHT22;12832;52.392;13.066;2022-07-03T13:29:08;29.60;44.20
24730;DHT22;12832;52.392;13.066;2022-07-03T13:31:34;29.60;44.30
24730;DHT22;12832;52.392;13.066;2022-07-03T13:34:01;29.60;44.30
24730;DHT22;12832;52.392;13.066;2022-07-03T13:36:29;29.70;44.30
24730;DHT22;12832;52.392;13.066;2022-07-03T13:38:57;29.60;44.20
24730;DHT22;12832;52.392;13.066;2022-07-03T13:41:48;29.60;44.20
24730;DHT22;12832;52.392;13.066;2022-07-03T13:44:14;29.60;44.20
24730;DHT22;12832;52.392;13.066;2022-07-03T13:46:40;29.70;44.30
24730;DHT22;12832;52.392;13.066;2022-07-03T13:49:11;29.60;44.20
24730;DHT22;12832;52.392;13.066;2022-07-03T13:51:37;29.70;44.30
24730;DHT22;12832;52.392;13.066;2022-07-03T13:54:03;29.70;44.30
24730;DHT22;12832;52.392;13.066;2022-07-03T13:56:29;29.60;44.20
24730;DHT22;12832;52.392;13.066;2022-07-03T13:58:56;29.60;44.30
24730;DHT22;12832;52.392;13.066;2022-07-03T14:01:26;29.60;44.30
24730;DHT22;12832;52.392;13.066;2022-07-03T14:03:52;29.60;44.30
24730;DHT22;12832;52.392;13.066;2022-07-03T14:06:19;29.60;44.30
24730;DHT22;12832;52.392;13.066;2022-07-03T14:08:46;29.60;44.30
24730;DHT22;12832;52.392;13.066;2022-07-03T14:11:13;29.60;44.30
24730;DHT22;12832;52.392;13.066;2022-07-03T14:13:42;29.60;44.30
24730;DHT22;12832;52.392;13.066;2022-07-03T14:16:08;29.70;44.30
24730;DHT22;12832;52.392;13.066;2022-07-03T14:19:03;29.60;44.20
24730;DHT22;12832;52.392;13.066;2022-07-03T14:21:34;29.60;44.20
24730;DHT22;12832;52.392;13.066;2022-07-03T14:24:00;29.60;44.20
24730;DHT22;12832;52.392;13.066;2022-07-03T14:26:27;29.60;44.30
24730;DHT22;12832;52.392;13.066;2022-07-03T14:29:13;29.60;44.30
24730;DHT22;12832;52.392;13.066;2022-07-03T14:31:58;29.60;44.30
24730;DHT22;12832;52.392;13.066;2022-07-03T14:34:43;29.60;44.30
24730;DHT22;12832;52.392;13.066;2022-07-03T14:37:18;29.60;44.30
24730;DHT22;12832;52.392;13.066;2022-07-03T14:39:48;29.60;44.30
24730;DHT22;12832;52.392;13.066;2022-07-03T14:42:15;29.60;44.30
24730;DHT22;12832;52.392;13.066;2022-07-03T14:44:44;29.60;44.20
24730;DHT22;12832;52.392;13.066;2022-07-03T14:47:12;29.60;44.30
24730;DHT22;12832;52.392;13.066;2022-07-03T14:49:38;29.60;44.30
24730;DHT22;12832;52.392;13.066;2022-07-03T14:52:08;29.60;44.30
24730;DHT22;12832;52.392;13.066;2022-07-03T14:54:34;29.70;44.30
24730;DHT22;12832;52.392;13.066;2022-07-03T14:57:02;29.60;44.30
24730;DHT22;12832;52.392;13.066;2022-07-03T15:00:25;29.60;44.30
24730;DHT22;12832;52.392;13.066;2022-07-03T15:05:14;29.60;44.30
24730;DHT22;12832;52.392;13.066;2022-07-03T15:07:44;29.60;44.30
24730;DHT22;12832;52.392;13.066;2022-07-03T15:10:14;29.60;44.30
24730;DHT22;12832;52.392;13.066;2022-07-03T15:12:52;29.60;44.30
24730;DHT22;12832;52.392;13.066;2022-07-03T15:15:21;29.70;44.30
24730;DHT22;12832;52.392;13.066;2022-07-03T15:17:50;29.60;44.20
24730;DHT22;12832;52.392;13.066;2022-07-03T15:20:18;29.60;44.30
24730;DHT22;12832;52.392;13.066;2022-07-03T15:22:45;29.60;45.00
24730;DHT22;12832;52.392;13.066;2022-07-03T15:25:17;29.70;44.30
24730;DHT22;12832;52.392;13.066;2022-07-03T15:28:04;29.70;44.30
24730;DHT22;12832;52.392;13.066;2022-07-03T15:30:39;29.60;44.30
24730;DHT22;12832;52.392;13.066;2022-07-03T15:33:15;29.70;44.30
24730;DHT22;12832;52.392;13.066;2022-07-03T15:35:51;29.70;44.30
24730;DHT22;12832;52.392;13.066;2022-07-03T15:38:55;29.60;44.20
24730;DHT22;12832;52.392;13.066;2022-07-03T15:44:59;29.60;44.30
24730;DHT22;12832;52.392;13.066;2022-07-03T15:47:46;29.60;44.30
24730;DHT22;12832;52.392;13.066;2022-07-03T15:50:57;29.60;44.30
24730;DHT22;12832;52.392;13.066;2022-07-03T15:53:30;29.60;44.20
24730;DHT22;12832;52.392;13.066;2022-07-03T15:56:04;29.60;44.30
24730;DHT22;12832;52.392;13.066;2022-07-03T15:58:32;29.60;44.30
24730;DHT22;12832;52.392;13.066;2022-07-03T16:01:02;29.60;44.20
24730;DHT22;12832;52.392;13.066;2022-07-03T16:04:08;29.60;44.20
24730;DHT22;12832;52.392;13.066;2022-07-03T16:06:42;29.70;44.30
24730;DHT22;12832;52.392;13.066;2022-07-03T16:09:11;29.60;44.20
24730;DHT22;12832;52.392;13.066;2022-07-03T16:11:38;29.60;44.20
24730;DHT22;12832;52.392;13.066;2022-07-03T16:14:06;29.60;44.30
24730;DHT22;12832;52.392;13.066;2022-07-03T16:16:34;29.70;44.30
24730;DHT22;12832;52.392;13.066;2022-07-03T16:19:04;29.60;44.30
24730;DHT22;12832;52.392;13.066;2022-07-03T16:21:32;29.60;44.30
24730;DHT22;12832;52.392;13.066;2022-07-03T16:24:04;29.60;44.30
24730;DHT22;12832;52.392;13.066;2022-07-03T16:26:36;29.60;44.20
24730;DHT22;12832;52.392;13.066;2022-07-03T16:29:06;29.70;44.30
24730;DHT22;12832;52.392;13.066;2022-07-03T16:31:40;29.60;44.30
24730;DHT22;12832;52.392;13.066;2022-07-03T16:34:18;29.60;44.30